sensor_id;sensor_type;location;lat;lon;timestamp;P1;durP1;ratioP1;P2;durP2;ratioP2
21305;SDS011;10812;51.838;5.838;2022-08-21T00:00:29;6.37;;;3.80;;
21305;SDS011;10812;51.838;5.838;2022-08-21T00:03:00;6.30;;;3.37;;
21305;SDS011;10812;51.838;5.838;2022-08-21T00:05:31;6.70;;;4.00;;
21305;SDS011;10812;51.838;5.838;2022-08-21T00:07:59;6.90;;;3.70;;
21305;SDS011;10812;51.838;5.838;2022-08-21T00:10:27;6.77;;;4.70;;
21305;SDS011;10812;51.838;5.838;2022-08-21T00:12:56;8.43;;;4.10;;
21305;SDS011;10812;51.838;5.838;2022-08-21T00:15:25;6.83;;;3.93;;
21305;SDS011;10812;51.838;5.838;2022-08-21T00:17:55;4.80;;;4.00;;
21305;SDS011;10812;51.838;5.838;2022-08-21T00:20:26;6.63;;;3.90;;
21305;SDS011;10812;51.838;5.838;2022-08-21T00:22:54;6.17;;;4.50;;
21305;SDS011;10812;51.838;5.838;2022-08-21T00:25:23;5.07;;;4.03;;
21305;SDS011;10812;51.838;5.838;2022-08-21T00:27:51;7.27;;;4.73;;
21305;SDS011;10812;51.838;5.838;2022-08-21T00:30:21;6.00;;;4.87;;
21305;SDS011;10812;51.838;5.838;2022-08-21T00:32:50;6.07;;;5.10;;
21305;SDS011;10812;51.838;5.838;2022-08-21T00:35:20;6.53;;;5.10;;
21305;SDS011;10812;51.838;5.838;2022-08-21T00:37:50;8.03;;;6.20;;
21305;SDS011;10812;51.838;5.838;2022-08-21T00:40:20;10.57;;;6.00;;
21305;SDS011;10812;51.838;5.838;2022-08-21T00:42:51;9.30;;;5.70;;
21305;SDS011;10812;51.838;5.838;2022-08-21T00:45:19;7.17;;;5.77;;
21305;SDS011;10812;51.838;5.838;2022-08-21T00:47:48;9.67;;;5.73;;
21305;SDS011;10812;51.838;5.838;2022-08-21T00:50:17;9.30;;;5.50;;
21305;SDS011;10812;51.838;5.838;2022-08-21T00:52:47;6.57;;;5.40;;
21305;SDS011;10812;51.838;5.838;2022-08-21T00:55:19;6.07;;;5.13;;
21305;SDS011;10812;51.838;5.838;2022-08-21T00:57:50;7.33;;;4.70;;
21305;SDS011;10812;51.838;5.838;2022-08-21T01:00:22;9.00;;;5.53;;
21305;SDS011;10812;51.838;5.838;2022-08-21T01:02:56;7.70;;;4.57;;
21305;SDS011;10812;51.838;5.838;2022-08-21T01:05:25;8.40;;;5.70;;
21305;SDS011;10812;51.838;5.838;2022-08-21T01:07:55;7.53;;;5.50;;
21305;SDS011;10812;51.838;5.838;2022-08-21T01:10:24;7.93;;;4.73;;
21305;SDS011;10812;51.838;5.838;2022-08-21T01:12:52;7.47;;;5.07;;
21305;SDS011;10812;51.838;5.838;2022-08-21T01:15:23;5.07;;;4.57;;
21305;SDS011;10812;51.838;5.838;2022-08-21T01:17:54;6.03;;;4.70;;
21305;SDS011;10812;51.838;5.838;2022-08-21T01:20:23;7.47;;;5.40;;
21305;SDS011;10812;51.838;5.838;2022-08-21T01:22:59;8.47;;;4.93;;
21305;SDS011;10812;51.838;5.838;2022-08-21T01:25:27;8.63;;;4.93;;
21305;SDS011;10812;51.838;5.838;2022-08-21T01:27:56;8.50;;;4.53;;
21305;SDS011;10812;51.838;5.838;2022-08-21T01:30:27;7.97;;;5.07;;
21305;SDS011;10812;51.838;5.838;2022-08-21T01:32:56;7.27;;;5.23;;
21305;SDS011;10812;51.838;5.838;2022-08-21T01:35:27;6.67;;;5.20;;
21305;SDS011;10812;51.838;5.838;2022-08-21T01:37:56;7.13;;;4.70;;
21305;SDS011;10812;51.838;5.838;2022-08-21T01:40:25;7.27;;;4.30;;
21305;SDS011;10812;51.838;5.838;2022-08-21T01:42:53;9.13;;;5.40;;
21305;SDS011;10812;51.838;5.838;2022-08-21T01:45:22;6.73;;;4.47;;
21305;SDS011;10812;51.838;5.838;2022-08-21T01:47:50;9.50;;;4.83;;
21305;SDS011;10812;51.838;5.838;2022-08-21T01:50:18;7.30;;;4.57;;
21305;SDS011;10812;51.838;5.838;2022-08-21T01:52:47;5.83;;;4.20;;
21305;SDS011;10812;51.838;5.838;2022-08-21T01:55:17;7.37;;;4.67;;
21305;SDS011;10812;51.838;5.838;2022-08-21T01:57:46;7.57;;;4.97;;
21305;SDS011;10812;51.838;5.838;2022-08-21T02:00:17;8.33;;;5.37;;
21305;SDS011;10812;51.838;5.838;2022-08-21T02:02:49;8.87;;;5.33;;
21305;SDS011;10812;51.838;5.838;2022-08-21T02:05:18;5.80;;;4.60;;
21305;SDS011;10812;51.838;5.838;2022-08-21T02:07:47;6.43;;;4.80;;
21305;SDS011;10812;51.838;5.838;2022-08-21T02:10:18;10.50;;;5.50;;
21305;SDS011;10812;51.838;5.838;2022-08-21T02:12:50;8.57;;;5.03;;
21305;SDS011;10812;51.838;5.838;2022-08-21T02:15:18;7.10;;;4.70;;
21305;SDS011;10812;51.838;5.838;2022-08-21T02:17:47;8.00;;;5.83;;
21305;SDS011;10812;51.838;5.838;2022-08-21T02:20:18;10.93;;;5.33;;
21305;SDS011;10812;51.838;5.838;2022-08-21T02:22:49;7.83;;;5.37;;
21305;SDS011;10812;51.838;5.838;2022-08-21T02:25:17;9.07;;;5.67;;
21305;SDS011;10812;51.838;5.838;2022-08-21T02:27:47;6.63;;;4.60;;
21305;SDS011;10812;51.838;5.838;2022-08-21T02:30:19;7.27;;;4.93;;
21305;SDS011;10812;51.838;5.838;2022-08-21T02:32:50;10.60;;;6.23;;
21305;SDS011;10812;51.838;5.838;2022-08-21T02:35:18;7.63;;;5.80;;
21305;SDS011;10812;51.838;5.838;2022-08-21T02:37:48;6.83;;;5.57;;
21305;SDS011;10812;51.838;5.838;2022-08-21T02:40:19;6.93;;;6.00;;
21305;SDS011;10812;51.838;5.838;2022-08-21T02:42:50;8.30;;;6.33;;
21305;SDS011;10812;51.838;5.838;2022-08-21T02:45:19;9.27;;;6.07;;
21305;SDS011;10812;51.838;5.838;2022-08-21T02:47:48;7.57;;;5.90;;
21305;SDS011;10812;51.838;5.838;2022-08-21T02:50:19;10.20;;;6.10;;
21305;SDS011;10812;51.838;5.838;2022-08-21T02:52:51;7.30;;;5.93;;
21305;SDS011;10812;51.838;5.838;2022-08-21T02:55:20;8.93;;;6.37;;
21305;SDS011;10812;51.838;5.838;2022-08-21T02:57:51;10.47;;;6.83;;
21305;SDS011;10812;51.838;5.838;2022-08-21T03:08:19;9.43;;;6.87;;
21305;SDS011;10812;51.838;5.838;2022-08-21T03:10:52;10.47;;;6.60;;
21305;SDS011;10812;51.838;5.838;2022-08-21T03:13:22;9.73;;;7.13;;
21305;SDS011;10812;51.838;5.838;2022-08-21T03:15:50;11.67;;;6.83;;
21305;SDS011;10812;51.838;5.838;2022-08-21T03:18:18;11.40;;;7.23;;
21305;SDS011;10812;51.838;5.838;2022-08-21T03:20:47;11.97;;;7.50;;
21305;SDS011;10812;51.838;5.838;2022-08-21T03:23:16;12.00;;;7.03;;
21305;SDS011;10812;51.838;5.838;2022-08-21T03:25:45;9.33;;;7.20;;
21305;SDS011;10812;51.838;5.838;2022-08-21T03:28:15;13.60;;;7.73;;
21305;SDS011;10812;51.838;5.838;2022-08-21T03:30:47;13.07;;;8.17;;
21305;SDS011;10812;51.838;5.838;2022-08-21T03:33:17;11.87;;;7.80;;
21305;SDS011;10812;51.838;5.838;2022-08-21T03:35:52;12.60;;;8.00;;
21305;SDS011;10812;51.838;5.838;2022-08-21T03:38:27;11.67;;;8.53;;
21305;SDS011;10812;51.838;5.838;2022-08-21T03:40:56;11.43;;;8.17;;
21305;SDS011;10812;51.838;5.838;2022-08-21T03:43:25;13.03;;;8.00;;
21305;SDS011;10812;51.838;5.838;2022-08-21T03:45:59;9.27;;;7.67;;
21305;SDS011;10812;51.838;5.838;2022-08-21T03:48:28;12.47;;;7.77;;
21305;SDS011;10812;51.838;5.838;2022-08-21T03:50:56;11.97;;;8.43;;
21305;SDS011;10812;51.838;5.838;2022-08-21T03:53:25;11.17;;;8.03;;
21305;SDS011;10812;51.838;5.838;2022-08-21T03:55:53;10.30;;;7.87;;
21305;SDS011;10812;51.838;5.838;2022-08-21T03:58:23;10.90;;;8.13;;
21305;SDS011;10812;51.838;5.838;2022-08-21T04:00:54;9.67;;;7.67;;
21305;SDS011;10812;51.838;5.838;2022-08-21T04:03:26;13.47;;;8.80;;
21305;SDS011;10812;51.838;5.838;2022-08-21T04:05:54;12.33;;;8.63;;
21305;SDS011;10812;51.838;5.838;2022-08-21T04:08:23;11.07;;;8.70;;
21305;SDS011;10812;51.838;5.838;2022-08-21T04:10:52;9.43;;;8.00;;
21305;SDS011;10812;51.838;5.838;2022-08-21T04:13:22;11.10;;;7.83;;
21305;SDS011;10812;51.838;5.838;2022-08-21T04:15:50;13.63;;;8.40;;
21305;SDS011;10812;51.838;5.838;2022-08-21T04:18:18;14.33;;;8.53;;
21305;SDS011;10812;51.838;5.838;2022-08-21T04:20:49;11.97;;;8.97;;
21305;SDS011;10812;51.838;5.838;2022-08-21T04:23:19;13.37;;;8.77;;
21305;SDS011;10812;51.838;5.838;2022-08-21T04:25:50;9.83;;;8.30;;
21305;SDS011;10812;51.838;5.838;2022-08-21T04:28:18;14.10;;;8.80;;
21305;SDS011;10812;51.838;5.838;2022-08-21T04:30:48;12.27;;;8.17;;
21305;SDS011;10812;51.838;5.838;2022-08-21T04:33:18;11.63;;;8.60;;
21305;SDS011;10812;51.838;5.838;2022-08-21T04:35:46;12.07;;;8.80;;
21305;SDS011;10812;51.838;5.838;2022-08-21T04:38:17;10.80;;;8.10;;
21305;SDS011;10812;51.838;5.838;2022-08-21T04:40:45;13.80;;;9.80;;
21305;SDS011;10812;51.838;5.838;2022-08-21T04:43:15;11.43;;;8.83;;
21305;SDS011;10812;51.838;5.838;2022-08-21T04:45:45;13.10;;;8.53;;
21305;SDS011;10812;51.838;5.838;2022-08-21T04:48:17;15.00;;;9.27;;
21305;SDS011;10812;51.838;5.838;2022-08-21T04:50:50;9.57;;;8.17;;
21305;SDS011;10812;51.838;5.838;2022-08-21T04:53:22;11.37;;;8.63;;
21305;SDS011;10812;51.838;5.838;2022-08-21T04:55:55;14.93;;;10.67;;
21305;SDS011;10812;51.838;5.838;2022-08-21T04:58:28;13.23;;;9.87;;
21305;SDS011;10812;51.838;5.838;2022-08-21T05:00:57;14.53;;;10.43;;
21305;SDS011;10812;51.838;5.838;2022-08-21T05:03:27;12.03;;;9.40;;
21305;SDS011;10812;51.838;5.838;2022-08-21T05:05:59;14.97;;;9.63;;
21305;SDS011;10812;51.838;5.838;2022-08-21T05:08:32;14.23;;;9.70;;
21305;SDS011;10812;51.838;5.838;2022-08-21T05:11:03;14.17;;;9.67;;
21305;SDS011;10812;51.838;5.838;2022-08-21T05:13:31;10.63;;;9.40;;
21305;SDS011;10812;51.838;5.838;2022-08-21T05:15:59;12.97;;;10.37;;
21305;SDS011;10812;51.838;5.838;2022-08-21T05:18:28;14.60;;;10.07;;
21305;SDS011;10812;51.838;5.838;2022-08-21T05:20:56;14.20;;;10.80;;
21305;SDS011;10812;51.838;5.838;2022-08-21T05:23:25;13.97;;;9.73;;
21305;SDS011;10812;51.838;5.838;2022-08-21T05:25:54;12.73;;;10.33;;
21305;SDS011;10812;51.838;5.838;2022-08-21T05:28:22;14.63;;;10.83;;
21305;SDS011;10812;51.838;5.838;2022-08-21T05:30:52;12.97;;;10.93;;
21305;SDS011;10812;51.838;5.838;2022-08-21T05:33:20;15.33;;;10.00;;
21305;SDS011;10812;51.838;5.838;2022-08-21T05:35:49;11.40;;;10.07;;
21305;SDS011;10812;51.838;5.838;2022-08-21T05:38:18;12.93;;;10.80;;
21305;SDS011;10812;51.838;5.838;2022-08-21T05:40:48;15.50;;;11.37;;
21305;SDS011;10812;51.838;5.838;2022-08-21T05:43:16;12.77;;;10.07;;
21305;SDS011;10812;51.838;5.838;2022-08-21T05:45:44;13.37;;;10.37;;
21305;SDS011;10812;51.838;5.838;2022-08-21T05:48:14;12.90;;;10.33;;
21305;SDS011;10812;51.838;5.838;2022-08-21T05:50:45;13.93;;;9.47;;
21305;SDS011;10812;51.838;5.838;2022-08-21T05:53:15;16.77;;;8.57;;
21305;SDS011;10812;51.838;5.838;2022-08-21T05:55:44;12.93;;;9.23;;
21305;SDS011;10812;51.838;5.838;2022-08-21T05:58:15;10.57;;;8.23;;
21305;SDS011;10812;51.838;5.838;2022-08-21T06:00:45;16.03;;;9.57;;
21305;SDS011;10812;51.838;5.838;2022-08-21T06:03:15;12.27;;;9.13;;
21305;SDS011;10812;51.838;5.838;2022-08-21T06:05:44;10.93;;;8.83;;
21305;SDS011;10812;51.838;5.838;2022-08-21T06:08:12;12.90;;;8.77;;
21305;SDS011;10812;51.838;5.838;2022-08-21T06:10:41;10.30;;;7.63;;
21305;SDS011;10812;51.838;5.838;2022-08-21T06:13:09;12.07;;;6.30;;
21305;SDS011;10812;51.838;5.838;2022-08-21T06:15:39;8.23;;;6.50;;
21305;SDS011;10812;51.838;5.838;2022-08-21T06:18:07;7.00;;;5.28;;
21305;SDS011;10812;51.838;5.838;2022-08-21T06:20:36;5.30;;;4.80;;
21305;SDS011;10812;51.838;5.838;2022-08-21T06:23:04;8.02;;;5.32;;
21305;SDS011;10812;51.838;5.838;2022-08-21T06:25:32;6.57;;;5.05;;
21305;SDS011;10812;51.838;5.838;2022-08-21T06:28:01;8.00;;;4.90;;
21305;SDS011;10812;51.838;5.838;2022-08-21T06:30:31;5.93;;;4.60;;
21305;SDS011;10812;51.838;5.838;2022-08-21T06:33:01;5.93;;;5.20;;
21305;SDS011;10812;51.838;5.838;2022-08-21T06:35:29;9.10;;;5.40;;
21305;SDS011;10812;51.838;5.838;2022-08-21T06:37:58;7.13;;;4.97;;
21305;SDS011;10812;51.838;5.838;2022-08-21T06:40:26;6.88;;;5.45;;
21305;SDS011;10812;51.838;5.838;2022-08-21T06:42:55;7.47;;;4.70;;
21305;SDS011;10812;51.838;5.838;2022-08-21T06:45:26;7.88;;;5.20;;
21305;SDS011;10812;51.838;5.838;2022-08-21T06:47:57;9.80;;;5.65;;
21305;SDS011;10812;51.838;5.838;2022-08-21T06:50:27;8.60;;;4.40;;
21305;SDS011;10812;51.838;5.838;2022-08-21T06:53:00;6.75;;;4.60;;
21305;SDS011;10812;51.838;5.838;2022-08-21T06:55:29;6.10;;;4.72;;
21305;SDS011;10812;51.838;5.838;2022-08-21T06:57:58;8.40;;;5.03;;
21305;SDS011;10812;51.838;5.838;2022-08-21T07:00:26;7.90;;;4.78;;
21305;SDS011;10812;51.838;5.838;2022-08-21T07:02:54;6.75;;;4.30;;
21305;SDS011;10812;51.838;5.838;2022-08-21T07:05:24;7.95;;;4.75;;
21305;SDS011;10812;51.838;5.838;2022-08-21T07:07:54;7.13;;;4.50;;
21305;SDS011;10812;51.838;5.838;2022-08-21T07:10:23;9.82;;;5.28;;
21305;SDS011;10812;51.838;5.838;2022-08-21T07:12:52;7.00;;;4.28;;
21305;SDS011;10812;51.838;5.838;2022-08-21T07:15:27;7.00;;;4.22;;
21305;SDS011;10812;51.838;5.838;2022-08-21T07:17:56;8.60;;;4.90;;
21305;SDS011;10812;51.838;5.838;2022-08-21T07:20:25;7.80;;;4.20;;
21305;SDS011;10812;51.838;5.838;2022-08-21T07:22:56;7.28;;;4.40;;
21305;SDS011;10812;51.838;5.838;2022-08-21T07:25:26;6.90;;;3.85;;
21305;SDS011;10812;51.838;5.838;2022-08-21T07:27:54;6.35;;;4.28;;
21305;SDS011;10812;51.838;5.838;2022-08-21T07:30:22;5.90;;;4.03;;
21305;SDS011;10812;51.838;5.838;2022-08-21T07:32:51;6.93;;;4.07;;
21305;SDS011;10812;51.838;5.838;2022-08-21T07:35:20;7.28;;;4.70;;
21305;SDS011;10812;51.838;5.838;2022-08-21T07:37:49;8.18;;;4.60;;
21305;SDS011;10812;51.838;5.838;2022-08-21T07:40:18;5.15;;;4.07;;
21305;SDS011;10812;51.838;5.838;2022-08-21T07:42:47;7.53;;;4.32;;
21305;SDS011;10812;51.838;5.838;2022-08-21T07:45:18;6.50;;;4.10;;
21305;SDS011;10812;51.838;5.838;2022-08-21T07:47:48;6.47;;;4.55;;
21305;SDS011;10812;51.838;5.838;2022-08-21T07:50:22;6.47;;;4.40;;
21305;SDS011;10812;51.838;5.838;2022-08-21T07:52:50;8.38;;;4.55;;
21305;SDS011;10812;51.838;5.838;2022-08-21T07:55:20;6.95;;;3.97;;
21305;SDS011;10812;51.838;5.838;2022-08-21T07:57:49;7.13;;;4.30;;
21305;SDS011;10812;51.838;5.838;2022-08-21T08:00:19;7.72;;;3.97;;
21305;SDS011;10812;51.838;5.838;2022-08-21T08:02:49;7.22;;;4.38;;
21305;SDS011;10812;51.838;5.838;2022-08-21T08:05:20;8.07;;;4.45;;
21305;SDS011;10812;51.838;5.838;2022-08-21T08:07:50;8.98;;;4.53;;
21305;SDS011;10812;51.838;5.838;2022-08-21T08:10:20;9.57;;;5.10;;
21305;SDS011;10812;51.838;5.838;2022-08-21T08:12:50;8.82;;;4.20;;
21305;SDS011;10812;51.838;5.838;2022-08-21T08:15:22;6.25;;;3.90;;
21305;SDS011;10812;51.838;5.838;2022-08-21T08:17:51;6.15;;;3.60;;
21305;SDS011;10812;51.838;5.838;2022-08-21T08:20:21;14.45;;;4.38;;
21305;SDS011;10812;51.838;5.838;2022-08-21T08:22:51;8.32;;;4.00;;
21305;SDS011;10812;51.838;5.838;2022-08-21T08:25:21;7.78;;;3.60;;
21305;SDS011;10812;51.838;5.838;2022-08-21T08:27:51;6.88;;;3.60;;
21305;SDS011;10812;51.838;5.838;2022-08-21T08:30:20;6.32;;;3.45;;
21305;SDS011;10812;51.838;5.838;2022-08-21T08:32:50;6.65;;;3.55;;
21305;SDS011;10812;51.838;5.838;2022-08-21T08:35:18;8.00;;;3.78;;
21305;SDS011;10812;51.838;5.838;2022-08-21T08:37:49;4.75;;;3.60;;
21305;SDS011;10812;51.838;5.838;2022-08-21T08:40:20;7.38;;;3.67;;
21305;SDS011;10812;51.838;5.838;2022-08-21T08:42:55;8.77;;;3.85;;
21305;SDS011;10812;51.838;5.838;2022-08-21T08:45:24;8.93;;;3.33;;
21305;SDS011;10812;51.838;5.838;2022-08-21T08:47:53;6.65;;;3.40;;
21305;SDS011;10812;51.838;5.838;2022-08-21T08:50:26;6.95;;;3.30;;
21305;SDS011;10812;51.838;5.838;2022-08-21T08:52:59;5.18;;;3.10;;
21305;SDS011;10812;51.838;5.838;2022-08-21T08:55:33;6.60;;;3.60;;
21305;SDS011;10812;51.838;5.838;2022-08-21T08:58:03;6.88;;;3.75;;
21305;SDS011;10812;51.838;5.838;2022-08-21T09:00:32;6.57;;;3.17;;
21305;SDS011;10812;51.838;5.838;2022-08-21T09:03:02;6.65;;;3.03;;
21305;SDS011;10812;51.838;5.838;2022-08-21T09:05:32;7.80;;;2.75;;
21305;SDS011;10812;51.838;5.838;2022-08-21T09:08:18;5.88;;;3.42;;
21305;SDS011;10812;51.838;5.838;2022-08-21T09:11:00;4.32;;;2.58;;
21305;SDS011;10812;51.838;5.838;2022-08-21T09:13:38;7.03;;;3.05;;
21305;SDS011;10812;51.838;5.838;2022-08-21T09:16:18;5.20;;;2.30;;
21305;SDS011;10812;51.838;5.838;2022-08-21T09:18:58;8.20;;;2.80;;
21305;SDS011;10812;51.838;5.838;2022-08-21T09:21:35;4.47;;;2.70;;
21305;SDS011;10812;51.838;5.838;2022-08-21T09:24:17;8.38;;;3.00;;
21305;SDS011;10812;51.838;5.838;2022-08-21T09:26:56;5.70;;;2.40;;
21305;SDS011;10812;51.838;5.838;2022-08-21T09:29:31;5.50;;;2.25;;
21305;SDS011;10812;51.838;5.838;2022-08-21T09:32:02;5.70;;;2.10;;
21305;SDS011;10812;51.838;5.838;2022-08-21T09:34:39;4.32;;;2.30;;
21305;SDS011;10812;51.838;5.838;2022-08-21T09:37:15;4.55;;;1.90;;
21305;SDS011;10812;51.838;5.838;2022-08-21T09:39:43;5.32;;;2.05;;
21305;SDS011;10812;51.838;5.838;2022-08-21T09:42:21;3.80;;;1.95;;
21305;SDS011;10812;51.838;5.838;2022-08-21T09:45:00;6.15;;;2.40;;
21305;SDS011;10812;51.838;5.838;2022-08-21T09:47:36;7.18;;;2.22;;
21305;SDS011;10812;51.838;5.838;2022-08-21T09:50:09;4.60;;;1.58;;
21305;SDS011;10812;51.838;5.838;2022-08-21T09:52:44;5.30;;;2.00;;
21305;SDS011;10812;51.838;5.838;2022-08-21T09:55:22;5.03;;;2.42;;
21305;SDS011;10812;51.838;5.838;2022-08-21T09:58:18;5.97;;;2.42;;
21305;SDS011;10812;51.838;5.838;2022-08-21T10:00:56;5.18;;;2.08;;
21305;SDS011;10812;51.838;5.838;2022-08-21T10:03:26;5.00;;;1.80;;
21305;SDS011;10812;51.838;5.838;2022-08-21T10:05:57;3.78;;;1.88;;
21305;SDS011;10812;51.838;5.838;2022-08-21T10:08:29;4.10;;;1.83;;
21305;SDS011;10812;51.838;5.838;2022-08-21T10:11:01;5.00;;;1.85;;
21305;SDS011;10812;51.838;5.838;2022-08-21T10:13:37;5.20;;;1.95;;
21305;SDS011;10812;51.838;5.838;2022-08-21T10:16:15;3.97;;;1.92;;
21305;SDS011;10812;51.838;5.838;2022-08-21T10:18:56;5.65;;;1.80;;
21305;SDS011;10812;51.838;5.838;2022-08-21T10:21:38;3.78;;;1.75;;
21305;SDS011;10812;51.838;5.838;2022-08-21T10:24:20;5.43;;;2.17;;
21305;SDS011;10812;51.838;5.838;2022-08-21T10:27:01;5.55;;;2.10;;
21305;SDS011;10812;51.838;5.838;2022-08-21T10:29:49;3.53;;;1.77;;
21305;SDS011;10812;51.838;5.838;2022-08-21T10:32:25;4.25;;;1.88;;
21305;SDS011;10812;51.838;5.838;2022-08-21T10:35:14;3.88;;;1.67;;
21305;SDS011;10812;51.838;5.838;2022-08-21T10:37:54;4.97;;;2.03;;
21305;SDS011;10812;51.838;5.838;2022-08-21T10:41:05;3.00;;;1.80;;
21305;SDS011;10812;51.838;5.838;2022-08-21T10:43:42;3.05;;;1.58;;
21305;SDS011;10812;51.838;5.838;2022-08-21T10:46:21;5.10;;;2.00;;
21305;SDS011;10812;51.838;5.838;2022-08-21T10:48:57;3.83;;;1.55;;
21305;SDS011;10812;51.838;5.838;2022-08-21T10:51:32;4.85;;;1.73;;
21305;SDS011;10812;51.838;5.838;2022-08-21T10:54:05;4.22;;;1.50;;
21305;SDS011;10812;51.838;5.838;2022-08-21T10:56:39;4.05;;;1.65;;
21305;SDS011;10812;51.838;5.838;2022-08-21T10:59:15;3.17;;;1.77;;
21305;SDS011;10812;51.838;5.838;2022-08-21T11:01:54;4.38;;;1.48;;
21305;SDS011;10812;51.838;5.838;2022-08-21T11:04:30;3.90;;;1.45;;
21305;SDS011;10812;51.838;5.838;2022-08-21T11:07:16;4.22;;;1.85;;
21305;SDS011;10812;51.838;5.838;2022-08-21T11:09:50;6.93;;;1.92;;
21305;SDS011;10812;51.838;5.838;2022-08-21T11:12:23;5.75;;;1.70;;
21305;SDS011;10812;51.838;5.838;2022-08-21T11:14:56;4.97;;;1.40;;
21305;SDS011;10812;51.838;5.838;2022-08-21T11:17:30;3.20;;;1.52;;
21305;SDS011;10812;51.838;5.838;2022-08-21T11:20:05;3.60;;;1.50;;
21305;SDS011;10812;51.838;5.838;2022-08-21T11:22:38;5.95;;;1.77;;
21305;SDS011;10812;51.838;5.838;2022-08-21T11:25:13;4.35;;;1.92;;
21305;SDS011;10812;51.838;5.838;2022-08-21T11:27:59;2.92;;;1.70;;
21305;SDS011;10812;51.838;5.838;2022-08-21T11:30:33;2.88;;;1.42;;
21305;SDS011;10812;51.838;5.838;2022-08-21T11:33:16;6.07;;;2.03;;
21305;SDS011;10812;51.838;5.838;2022-08-21T11:35:57;6.93;;;2.13;;
21305;SDS011;10812;51.838;5.838;2022-08-21T11:38:33;4.55;;;1.88;;
21305;SDS011;10812;51.838;5.838;2022-08-21T11:41:16;6.70;;;2.20;;
21305;SDS011;10812;51.838;5.838;2022-08-21T11:43:53;4.25;;;1.75;;
21305;SDS011;10812;51.838;5.838;2022-08-21T11:46:31;4.25;;;1.60;;
21305;SDS011;10812;51.838;5.838;2022-08-21T11:49:09;5.28;;;1.50;;
21305;SDS011;10812;51.838;5.838;2022-08-21T11:51:50;5.03;;;1.50;;
21305;SDS011;10812;51.838;5.838;2022-08-21T12:02:07;4.85;;;1.58;;
21305;SDS011;10812;51.838;5.838;2022-08-21T12:04:44;5.30;;;1.23;;
21305;SDS011;10812;51.838;5.838;2022-08-21T12:07:15;7.43;;;2.00;;
21305;SDS011;10812;51.838;5.838;2022-08-21T12:09:52;3.53;;;1.40;;
21305;SDS011;10812;51.838;5.838;2022-08-21T12:12:25;2.38;;;1.25;;
21305;SDS011;10812;51.838;5.838;2022-08-21T12:15:11;3.17;;;1.30;;
21305;SDS011;10812;51.838;5.838;2022-08-21T12:17:51;3.95;;;1.50;;
21305;SDS011;10812;51.838;5.838;2022-08-21T12:20:34;4.50;;;1.60;;
21305;SDS011;10812;51.838;5.838;2022-08-21T12:23:17;4.32;;;1.67;;
21305;SDS011;10812;51.838;5.838;2022-08-21T12:28:47;3.58;;;1.35;;
21305;SDS011;10812;51.838;5.838;2022-08-21T12:31:20;4.47;;;1.73;;
21305;SDS011;10812;51.838;5.838;2022-08-21T12:33:51;3.67;;;1.95;;
21305;SDS011;10812;51.838;5.838;2022-08-21T12:36:24;5.38;;;2.10;;
21305;SDS011;10812;51.838;5.838;2022-08-21T12:39:04;3.90;;;1.52;;
21305;SDS011;10812;51.838;5.838;2022-08-21T12:41:41;3.90;;;1.50;;
21305;SDS011;10812;51.838;5.838;2022-08-21T12:44:14;3.17;;;1.23;;
21305;SDS011;10812;51.838;5.838;2022-08-21T12:46:46;3.10;;;1.40;;
21305;SDS011;10812;51.838;5.838;2022-08-21T12:49:18;3.33;;;1.20;;
21305;SDS011;10812;51.838;5.838;2022-08-21T12:52:01;5.07;;;1.77;;
21305;SDS011;10812;51.838;5.838;2022-08-21T12:54:38;4.68;;;1.40;;
21305;SDS011;10812;51.838;5.838;2022-08-21T12:57:09;1.80;;;1.17;;
21305;SDS011;10812;51.838;5.838;2022-08-21T12:59:51;2.72;;;1.10;;
21305;SDS011;10812;51.838;5.838;2022-08-21T13:02:21;3.80;;;1.58;;
21305;SDS011;10812;51.838;5.838;2022-08-21T13:04:52;4.32;;;1.33;;
21305;SDS011;10812;51.838;5.838;2022-08-21T13:07:23;3.28;;;1.38;;
21305;SDS011;10812;51.838;5.838;2022-08-21T13:09:58;4.50;;;1.15;;
21305;SDS011;10812;51.838;5.838;2022-08-21T13:12:29;2.45;;;1.50;;
21305;SDS011;10812;51.838;5.838;2022-08-21T13:15:00;2.72;;;1.30;;
21305;SDS011;10812;51.838;5.838;2022-08-21T13:17:34;3.20;;;1.25;;
21305;SDS011;10812;51.838;5.838;2022-08-21T13:20:07;4.70;;;2.05;;
21305;SDS011;10812;51.838;5.838;2022-08-21T13:22:41;2.75;;;1.45;;
21305;SDS011;10812;51.838;5.838;2022-08-21T13:25:11;5.55;;;1.48;;
21305;SDS011;10812;51.838;5.838;2022-08-21T13:27:40;3.17;;;1.50;;
21305;SDS011;10812;51.838;5.838;2022-08-21T13:30:10;3.13;;;1.13;;
21305;SDS011;10812;51.838;5.838;2022-08-21T13:32:41;4.72;;;1.30;;
21305;SDS011;10812;51.838;5.838;2022-08-21T13:35:13;5.28;;;1.73;;
21305;SDS011;10812;51.838;5.838;2022-08-21T13:37:45;2.72;;;1.20;;
21305;SDS011;10812;51.838;5.838;2022-08-21T13:40:16;4.32;;;1.50;;
21305;SDS011;10812;51.838;5.838;2022-08-21T13:42:47;3.83;;;1.30;;
21305;SDS011;10812;51.838;5.838;2022-08-21T13:45:17;3.83;;;1.40;;
21305;SDS011;10812;51.838;5.838;2022-08-21T13:47:51;3.95;;;1.40;;
21305;SDS011;10812;51.838;5.838;2022-08-21T13:50:21;3.80;;;1.63;;
21305;SDS011;10812;51.838;5.838;2022-08-21T13:52:59;3.22;;;1.40;;
21305;SDS011;10812;51.838;5.838;2022-08-21T13:55:36;2.92;;;1.25;;
21305;SDS011;10812;51.838;5.838;2022-08-21T13:58:06;3.30;;;1.30;;
21305;SDS011;10812;51.838;5.838;2022-08-21T14:00:42;2.30;;;1.00;;
21305;SDS011;10812;51.838;5.838;2022-08-21T14:03:13;3.17;;;1.05;;
21305;SDS011;10812;51.838;5.838;2022-08-21T14:05:55;3.10;;;1.23;;
21305;SDS011;10812;51.838;5.838;2022-08-21T14:08:29;3.28;;;1.48;;
21305;SDS011;10812;51.838;5.838;2022-08-21T14:11:00;4.43;;;1.45;;
21305;SDS011;10812;51.838;5.838;2022-08-21T14:13:36;3.55;;;1.20;;
21305;SDS011;10812;51.838;5.838;2022-08-21T14:16:11;2.47;;;1.10;;
21305;SDS011;10812;51.838;5.838;2022-08-21T14:18:46;2.72;;;1.20;;
21305;SDS011;10812;51.838;5.838;2022-08-21T14:21:24;3.65;;;1.40;;
21305;SDS011;10812;51.838;5.838;2022-08-21T14:24:05;5.20;;;1.30;;
21305;SDS011;10812;51.838;5.838;2022-08-21T14:26:36;3.83;;;1.15;;
21305;SDS011;10812;51.838;5.838;2022-08-21T14:29:12;3.58;;;1.17;;
21305;SDS011;10812;51.838;5.838;2022-08-21T14:31:42;6.00;;;1.92;;
21305;SDS011;10812;51.838;5.838;2022-08-21T14:34:11;5.13;;;1.63;;
21305;SDS011;10812;51.838;5.838;2022-08-21T14:36:45;4.75;;;1.17;;
21305;SDS011;10812;51.838;5.838;2022-08-21T14:39:15;4.80;;;1.20;;
21305;SDS011;10812;51.838;5.838;2022-08-21T14:41:43;3.00;;;1.23;;
21305;SDS011;10812;51.838;5.838;2022-08-21T14:44:14;6.18;;;5.50;;
21305;SDS011;10812;51.838;5.838;2022-08-21T14:46:44;3.70;;;2.35;;
21305;SDS011;10812;51.838;5.838;2022-08-21T14:49:22;5.20;;;2.05;;
21305;SDS011;10812;51.838;5.838;2022-08-21T14:51:52;4.88;;;2.15;;
21305;SDS011;10812;51.838;5.838;2022-08-21T14:54:25;4.38;;;1.52;;
21305;SDS011;10812;51.838;5.838;2022-08-21T14:56:57;4.65;;;2.45;;
21305;SDS011;10812;51.838;5.838;2022-08-21T14:59:27;6.43;;;2.15;;
21305;SDS011;10812;51.838;5.838;2022-08-21T15:01:55;3.00;;;1.40;;
21305;SDS011;10812;51.838;5.838;2022-08-21T15:04:23;5.13;;;1.90;;
21305;SDS011;10812;51.838;5.838;2022-08-21T15:06:51;3.33;;;1.67;;
21305;SDS011;10812;51.838;5.838;2022-08-21T15:09:19;6.05;;;1.58;;
21305;SDS011;10812;51.838;5.838;2022-08-21T15:11:49;8.23;;;1.23;;
21305;SDS011;10812;51.838;5.838;2022-08-21T15:14:18;3.50;;;1.40;;
21305;SDS011;10812;51.838;5.838;2022-08-21T15:16:49;6.10;;;1.45;;
21305;SDS011;10812;51.838;5.838;2022-08-21T15:19:18;4.85;;;1.27;;
21305;SDS011;10812;51.838;5.838;2022-08-21T15:21:47;3.70;;;1.40;;
21305;SDS011;10812;51.838;5.838;2022-08-21T15:24:15;3.75;;;1.60;;
21305;SDS011;10812;51.838;5.838;2022-08-21T15:26:44;2.28;;;1.05;;
21305;SDS011;10812;51.838;5.838;2022-08-21T15:29:15;2.88;;;1.70;;
21305;SDS011;10812;51.838;5.838;2022-08-21T15:31:52;10.40;;;7.63;;